Time;durP1;ratioP1;P1;durP2;ratioP2;P2;SDS_P1;SDS_P2;PMS_P1;PMS_P2;Temp;Humidity;BMP_temperature;BMP_pressure;BME280_temperature;BME280_humidity;BME280_pressure;Samples;Min_cycle;Max_cycle;Signal;HPM_P1;HPM_P2
2024/03/24 00:02:00;;;;;;;24.02;23.10;;;;;;;;;;4228884;28;20043;-57
2024/03/24 00:04:00;;;;;;;24.70;22.85;;;;;;;;;;4228823;28;20058;-58
2024/03/24 00:06:01;;;;;;;25.63;23.98;;;;;;;;;;4228917;28;20502;-58
2024/03/24 00:08:01;;;;;;;23.02;22.10;;;;;;;;;;4212063;28;20047;-57
2024/03/24 00:10:02;;;;;;;22.65;21.75;;;;;;;;;;4228822;28;20047;-58
2024/03/24 00:12:03;;;;;;;24.30;22.85;;;;;;;;;;4228871;28;20053;-58
2024/03/24 00:14:04;;;;;;;22.05;21.20;;;;;;;;;;4228882;28;20036;-58
2024/03/24 00:16:05;;;;;;;23.58;21.95;;;;;;;;;;4228784;28;20039;-58
2024/03/24 00:18:06;;;;;;;23.20;22.17;;;;;;;;;;4230732;28;20380;-58
2024/03/24 00:20:06;;;;;;;21.38;20.38;;;;;;;;;;4231922;28;20048;-58
2024/03/24 00:22:07;;;;;;;21.05;19.67;;;;;;;;;;4231867;28;20048;-58
2024/03/24 00:24:08;;;;;;;20.88;19.52;;;;;;;;;;4231429;28;20050;-58
2024/03/24 00:26:08;;;;;;;20.17;19.35;;;;;;;;;;4231612;28;20567;-58
2024/03/24 00:28:09;;;;;;;19.05;18.52;;;;;;;;;;4230137;28;20083;-58
2024/03/24 00:30:09;;;;;;;19.60;18.75;;;;;;;;;;4229860;28;20044;-58
2024/03/24 00:32:11;;;;;;;18.95;18.00;;;;;;;;;;4230431;28;20460;-58
2024/03/24 00:34:12;;;;;;;18.55;17.95;;;;;;;;;;4230632;28;20043;-58
2024/03/24 00:36:12;;;;;;;18.92;18.27;;;;;;;;;;4231153;28;20036;-58
2024/03/24 00:38:13;;;;;;;20.10;19.38;;;;;;;;;;4234952;27;20043;-58
2024/03/24 00:40:14;;;;;;;20.60;19.25;;;;;;;;;;4248500;27;20479;-58
2024/03/24 00:42:14;;;;;;;20.63;19.77;;;;;;;;;;4248486;27;20032;-58
2024/03/24 00:44:15;;;;;;;18.17;17.05;;;;;;;;;;4248523;27;20074;-58
2024/03/24 00:46:15;;;;;;;20.45;19.40;;;;;;;;;;4234551;27;20035;-59
2024/03/24 00:48:16;;;;;;;17.63;16.90;;;;;;;;;;4231418;28;20044;-60
2024/03/24 00:50:17;;;;;;;15.05;14.27;;;;;;;;;;4231425;28;20522;-60
2024/03/24 00:52:17;;;;;;;15.38;14.52;;;;;;;;;;4231361;28;20047;-60
2024/03/24 00:54:18;;;;;;;17.85;16.92;;;;;;;;;;4231400;28;20530;-60
2024/03/24 00:56:18;;;;;;;17.45;16.65;;;;;;;;;;4231348;28;20039;-60
2024/03/24 00:58:19;;;;;;;19.92;19.27;;;;;;;;;;4231266;28;20047;-60
2024/03/24 01:00:19;;;;;;;22.20;21.10;;;;;;;;;;4231306;28;20515;-60
2024/03/24 01:02:20;;;;;;;22.45;21.65;;;;;;;;;;4231248;28;20082;-60
2024/03/24 01:04:24;;;;;;;22.88;22.08;;;;;;;;;;4230881;28;20051;-60
2024/03/24 01:06:25;;;;;;;21.30;20.70;;;;;;;;;;4231278;28;20038;-60
2024/03/24 01:08:26;;;;;;;21.83;20.35;;;;;;;;;;4231198;28;20079;-60
2024/03/24 01:10:26;;;;;;;21.58;20.70;;;;;;;;;;4231151;28;20052;-60
2024/03/24 01:12:27;;;;;;;23.38;21.98;;;;;;;;;;4231034;28;20031;-60
2024/03/24 01:14:28;;;;;;;21.67;20.65;;;;;;;;;;4231113;28;20036;-60
2024/03/24 01:16:29;;;;;;;22.58;21.20;;;;;;;;;;4231196;28;20082;-60
2024/03/24 01:18:30;;;;;;;22.85;21.73;;;;;;;;;;4231183;28;20044;-59
2024/03/24 01:20:32;;;;;;;22.42;21.05;;;;;;;;;;4230869;28;20058;-59
2024/03/24 01:22:32;;;;;;;22.65;21.73;;;;;;;;;;4230956;28;20105;-60
2024/03/24 01:24:33;;;;;;;23.90;22.52;;;;;;;;;;4230986;28;20039;-60
2024/03/24 01:26:34;;;;;;;25.40;24.17;;;;;;;;;;4230755;28;20039;-60
2024/03/24 01:28:35;;;;;;;24.65;23.10;;;;;;;;;;4230476;28;20036;-59
2024/03/24 01:30:36;;;;;;;23.05;22.25;;;;;;;;;;4230094;28;20048;-60
2024/03/24 01:32:37;;;;;;;24.35;23.20;;;;;;;;;;4230841;28;20157;-60
2024/03/24 01:34:38;;;;;;;23.17;22.40;;;;;;;;;;4235317;27;20394;-60
2024/03/24 01:36:38;;;;;;;25.08;24.35;;;;;;;;;;4247640;27;20051;-61
2024/03/24 01:38:39;;;;;;;22.95;21.65;;;;;;;;;;4247857;27;20055;-59
2024/03/24 01:40:47;;;;;;;23.85;22.67;;;;;;;;;;4247574;27;20039;-60
2024/03/24 01:42:47;;;;;;;25.25;24.48;;;;;;;;;;4231136;28;20100;-60
2024/03/24 01:44:48;;;;;;;23.77;22.33;;;;;;;;;;4230299;28;20045;-60
2024/03/24 01:46:49;;;;;;;23.30;22.33;;;;;;;;;;4230558;28;20251;-60
2024/03/24 01:48:49;;;;;;;22.33;21.15;;;;;;;;;;4230507;28;20487;-60
2024/03/24 01:50:50;;;;;;;21.60;20.80;;;;;;;;;;4230391;28;20191;-60
2024/03/24 01:52:51;;;;;;;22.40;21.80;;;;;;;;;;4230272;28;20096;-59
2024/03/24 01:54:52;;;;;;;22.38;21.02;;;;;;;;;;4230467;28;20054;-60
2024/03/24 01:56:53;;;;;;;24.40;23.05;;;;;;;;;;4230805;28;20043;-60
2024/03/24 01:58:53;;;;;;;23.02;21.77;;;;;;;;;;4229153;28;20056;-60
2024/03/24 02:00:54;;;;;;;25.25;24.05;;;;;;;;;;4230683;28;20051;-58
2024/03/24 02:02:55;;;;;;;21.42;20.52;;;;;;;;;;4241653;22;20088;-56
2024/03/24 02:04:55;;;;;;;24.33;22.88;;;;;;;;;;4192789;28;20037;-59
2024/03/24 02:06:56;;;;;;;23.20;21.88;;;;;;;;;;4180102;28;20052;-59
2024/03/24 02:08:57;;;;;;;26.50;25.13;;;;;;;;;;4179878;28;20087;-59
2024/03/24 02:10:58;;;;;;;26.70;24.95;;;;;;;;;;4180035;28;20048;-59
2024/03/24 02:12:59;;;;;;;25.88;24.25;;;;;;;;;;4181300;28;20067;-59
2024/03/24 02:14:59;;;;;;;23.70;22.45;;;;;;;;;;4194202;28;20076;-58
2024/03/24 02:17:00;;;;;;;25.33;23.85;;;;;;;;;;4196406;28;20128;-58
2024/03/24 02:19:04;;;;;;;25.95;24.73;;;;;;;;;;4196568;28;20037;-58
2024/03/24 02:21:04;;;;;;;25.38;24.45;;;;;;;;;;4180125;28;20041;-59
2024/03/24 02:23:05;;;;;;;26.70;25.70;;;;;;;;;;4196469;28;20075;-58
2024/03/24 02:25:06;;;;;;;25.70;24.55;;;;;;;;;;4195886;28;20510;-57
2024/03/24 02:27:06;;;;;;;25.85;24.23;;;;;;;;;;4195925;28;20044;-59
2024/03/24 02:29:12;;;;;;;25.77;24.45;;;;;;;;;;4228515;28;20085;-58
2024/03/24 02:31:13;;;;;;;23.88;22.60;;;;;;;;;;4187433;28;20466;-59
2024/03/24 02:33:14;;;;;;;24.92;23.65;;;;;;;;;;4178718;28;20045;-59
2024/03/24 02:35:15;;;;;;;27.50;25.65;;;;;;;;;;4179323;28;20068;-59
2024/03/24 02:37:15;;;;;;;25.83;24.38;;;;;;;;;;4180585;28;20087;-58
2024/03/24 02:39:16;;;;;;;25.38;24.38;;;;;;;;;;4195926;28;20048;-60
2024/03/24 02:41:17;;;;;;;25.15;23.65;;;;;;;;;;4195149;28;20646;-59
2024/03/24 02:43:18;;;;;;;26.00;24.90;;;;;;;;;;4196228;28;20051;-59
2024/03/24 02:45:18;;;;;;;25.83;24.50;;;;;;;;;;4195804;28;20041;-59
2024/03/24 02:47:19;;;;;;;24.58;23.75;;;;;;;;;;4195460;28;20511;-59
2024/03/24 02:49:20;;;;;;;25.08;23.73;;;;;;;;;;4196111;28;20403;-58
2024/03/24 02:51:20;;;;;;;23.05;22.15;;;;;;;;;;4196029;28;20085;-58
2024/03/24 02:53:21;;;;;;;24.98;23.73;;;;;;;;;;4195962;28;20052;-59
2024/03/24 02:55:25;;;;;;;25.50;24.05;;;;;;;;;;4196003;28;20040;-59
2024/03/24 02:57:25;;;;;;;26.50;24.65;;;;;;;;;;4195980;28;20119;-59
2024/03/24 02:59:26;;;;;;;24.33;23.25;;;;;;;;;;4195836;28;20052;-58
2024/03/24 03:01:27;;;;;;;24.70;23.30;;;;;;;;;;4195828;28;20040;-59
2024/03/24 03:03:27;;;;;;;25.90;24.45;;;;;;;;;;4195617;28;20157;-58
2024/03/24 03:05:28;;;;;;;25.27;23.77;;;;;;;;;;4195855;28;20118;-60
2024/03/24 03:07:29;;;;;;;25.08;23.60;;;;;;;;;;4195828;28;20032;-59
2024/03/24 03:09:31;;;;;;;26.75;25.35;;;;;;;;;;4195725;28;20032;-59
2024/03/24 03:11:32;;;;;;;;;;;;;;;;;;4196539;28;20043;-59
2024/03/24 03:13:33;;;;;;;25.00;23.85;;;;;;;;;;4196056;28;19920;-59
2024/03/24 03:15:33;;;;;;;26.05;24.35;;;;;;;;;;4195775;28;20044;-59
2024/03/24 03:17:34;;;;;;;26.05;24.05;;;;;;;;;;4196105;28;20048;-59
2024/03/24 03:19:34;;;;;;;26.95;25.17;;;;;;;;;;4195996;28;20414;-59
2024/03/24 03:21:35;;;;;;;24.92;23.83;;;;;;;;;;4195674;28;20140;-60
2024/03/24 03:23:35;;;;;;;26.25;24.20;;;;;;;;;;4196000;28;20531;-57
2024/03/24 03:25:37;;;;;;;25.50;24.17;;;;;;;;;;4195782;28;20067;-57
2024/03/24 03:27:37;;;;;;;25.73;24.30;;;;;;;;;;4187002;28;20045;-59
2024/03/24 03:29:38;;;;;;;24.75;23.48;;;;;;;;;;4179153;28;20055;-59
2024/03/24 03:31:39;;;;;;;26.17;24.58;;;;;;;;;;4162491;28;20129;-59
2024/03/24 03:33:39;;;;;;;26.38;24.92;;;;;;;;;;4181333;28;20080;-60
2024/03/24 03:35:40;;;;;;;23.20;21.83;;;;;;;;;;4195647;28;20157;-58
2024/03/24 03:37:40;;;;;;;24.05;22.88;;;;;;;;;;4195428;28;20044;-59
2024/03/24 03:39:41;;;;;;;24.23;23.10;;;;;;;;;;4195490;28;20044;-59
2024/03/24 03:41:43;;;;;;;24.33;22.52;;;;;;;;;;4195754;28;20036;-59
2024/03/24 03:43:44;;;;;;;27.15;25.27;;;;;;;;;;4195578;28;20044;-58
2024/03/24 03:45:44;;;;;;;25.50;24.13;;;;;;;;;;4195493;28;20064;-60
2024/03/24 03:47:45;;;;;;;24.17;23.13;;;;;;;;;;4195530;28;20469;-59
2024/03/24 03:49:51;;;;;;;25.67;24.60;;;;;;;;;;4179046;28;20139;-59
2024/03/24 03:51:56;;;;;;;22.65;21.35;;;;;;;;;;4195512;28;20381;-58
2024/03/24 03:53:58;;;;;;;26.75;25.73;;;;;;;;;;4198483;28;20040;-59
2024/03/24 03:55:58;;;;;;;26.23;24.88;;;;;;;;;;4198564;28;20037;-59
2024/03/24 03:57:59;;;;;;;26.40;24.30;;;;;;;;;;4198568;28;20500;-59
2024/03/24 04:00:02;;;;;;;26.70;25.15;;;;;;;;;;4181981;28;20484;-59
2024/03/24 04:02:03;;;;;;;27.73;25.70;;;;;;;;;;4198527;28;20048;-60
2024/03/24 04:04:04;;;;;;;24.95;23.20;;;;;;;;;;4198406;28;20052;-59
2024/03/24 04:06:04;;;;;;;27.65;25.33;;;;;;;;;;4182188;28;20036;-59
2024/03/24 04:08:06;;;;;;;27.58;25.80;;;;;;;;;;4198566;28;20431;-60
2024/03/24 04:10:06;;;;;;;25.85;24.25;;;;;;;;;;4198358;28;20646;-59
2024/03/24 04:12:07;;;;;;;28.33;26.63;;;;;;;;;;4198380;28;20119;-59
2024/03/24 04:14:08;;;;;;;27.42;25.83;;;;;;;;;;4198351;28;20040;-59
2024/03/24 04:16:08;;;;;;;24.95;23.77;;;;;;;;;;4198290;28;20131;-60
2024/03/24 04:18:09;;;;;;;26.80;25.17;;;;;;;;;;4198557;28;20039;-60
2024/03/24 04:20:11;;;;;;;25.83;24.83;;;;;;;;;;4198482;28;20523;-59
2024/03/24 04:22:12;;;;;;;26.77;24.77;;;;;;;;;;4198546;28;20466;-59
2024/03/24 04:24:12;;;;;;;26.33;24.70;;;;;;;;;;4186755;28;20051;-60
2024/03/24 04:26:13;;;;;;;26.30;24.70;;;;;;;;;;4181465;28;20040;-59
2024/03/24 04:28:14;;;;;;;28.05;26.20;;;;;;;;;;4181854;28;20057;-59
2024/03/24 04:30:14;;;;;;;27.73;25.50;;;;;;;;;;4181300;28;20032;-60
2024/03/24 04:32:15;;;;;;;26.55;25.02;;;;;;;;;;4181569;28;20041;-60
2024/03/24 04:34:15;;;;;;;28.08;25.80;;;;;;;;;;4181599;28;20044;-60
2024/03/24 04:36:16;;;;;;;27.65;26.08;;;;;;;;;;4181497;28;20206;-59
2024/03/24 04:38:17;;;;;;;28.27;26.10;;;;;;;;;;4181483;28;20147;-60
2024/03/24 04:40:18;;;;;;;27.50;25.38;;;;;;;;;;4181638;28;20555;-60
2024/03/24 04:42:20;;;;;;;26.67;25.20;;;;;;;;;;4181371;28;20443;-59
2024/03/24 04:44:21;;;;;;;26.47;24.70;;;;;;;;;;4181472;28;20087;-60
2024/03/24 04:46:21;;;;;;;24.50;23.23;;;;;;;;;;4181494;28;20694;-59
2024/03/24 04:48:22;;;;;;;27.83;25.95;;;;;;;;;;4164800;28;20072;-59
2024/03/24 04:50:23;;;;;;;27.60;26.10;;;;;;;;;;4181297;28;20084;-59
2024/03/24 04:52:25;;;;;;;27.77;25.75;;;;;;;;;;4188054;28;20086;-60
2024/03/24 04:54:26;;;;;;;27.33;25.48;;;;;;;;;;4197688;28;20045;-59
2024/03/24 04:56:27;;;;;;;28.58;26.70;;;;;;;;;;4197768;28;20053;-60
2024/03/24 04:58:28;;;;;;;27.00;24.88;;;;;;;;;;4197727;28;20072;-59
2024/03/24 05:00:28;;;;;;;27.67;25.65;;;;;;;;;;4197672;28;20047;-60
2024/03/24 05:02:29;;;;;;;26.85;24.75;;;;;;;;;;4197875;28;20480;-59
2024/03/24 05:04:30;;;;;;;27.00;25.08;;;;;;;;;;4196310;28;20049;-60
2024/03/24 05:06:31;;;;;;;28.02;26.05;;;;;;;;;;4197658;28;20044;-60
2024/03/24 05:08:36;;;;;;;26.40;24.23;;;;;;;;;;4197817;28;20049;-59
2024/03/24 05:10:37;;;;;;;26.88;24.98;;;;;;;;;;4197580;28;20052;-60
2024/03/24 05:12:37;;;;;;;29.15;26.98;;;;;;;;;;4197516;28;20070;-60
2024/03/24 05:14:38;;;;;;;26.38;24.30;;;;;;;;;;4197352;28;20131;-60
2024/03/24 05:16:38;;;;;;;27.77;25.75;;;;;;;;;;4197383;28;20048;-59
2024/03/24 05:18:39;;;;;;;28.40;26.45;;;;;;;;;;4180979;28;20041;-59
2024/03/24 05:20:40;;;;;;;26.05;24.40;;;;;;;;;;4167724;28;20069;-59
2024/03/24 05:22:40;;;;;;;25.40;23.67;;;;;;;;;;4180729;28;20052;-59
2024/03/24 05:24:41;;;;;;;25.65;23.70;;;;;;;;;;4180623;28;20523;-59
2024/03/24 05:26:41;;;;;;;27.77;25.90;;;;;;;;;;4187563;28;20037;-59
2024/03/24 05:28:42;;;;;;;27.48;25.90;;;;;;;;;;4197176;28;20043;-58
2024/03/24 05:30:43;;;;;;;28.30;26.20;;;;;;;;;;4196949;28;20046;-60
2024/03/24 05:32:43;;;;;;;27.65;25.50;;;;;;;;;;4197105;28;20040;-58
2024/03/24 05:34:44;;;;;;;26.65;24.98;;;;;;;;;;4197285;28;20126;-60
2024/03/24 05:36:45;;;;;;;27.05;25.73;;;;;;;;;;4197239;28;20048;-59
2024/03/24 05:38:45;;;;;;;29.13;26.75;;;;;;;;;;4197512;28;20119;-59
2024/03/24 05:40:46;;;;;;;28.33;26.67;;;;;;;;;;4197155;28;20182;-59
2024/03/24 05:42:47;;;;;;;28.30;25.67;;;;;;;;;;4197004;28;20043;-59
2024/03/24 05:44:47;;;;;;;27.55;25.73;;;;;;;;;;4196913;28;20044;-59
2024/03/24 05:46:48;;;;;;;26.75;24.88;;;;;;;;;;4196943;28;20043;-59
2024/03/24 05:48:49;;;;;;;25.13;23.40;;;;;;;;;;4196750;28;20182;-59
2024/03/24 05:50:58;;;;;;;28.92;26.77;;;;;;;;;;4197087;28;20032;-59
2024/03/24 05:52:59;;;;;;;25.17;23.20;;;;;;;;;;4197056;28;20045;-59
2024/03/24 05:54:59;;;;;;;25.63;23.90;;;;;;;;;;4196876;28;20046;-60
2024/03/24 05:57:00;;;;;;;26.42;24.60;;;;;;;;;;4195091;28;20062;-58
2024/03/24 05:59:00;;;;;;;26.75;25.15;;;;;;;;;;4190240;28;20079;-59
2024/03/24 06:01:04;;;;;;;23.90;22.13;;;;;;;;;;4171361;28;20049;-60
2024/03/24 06:03:04;;;;;;;25.10;22.98;;;;;;;;;;4196235;28;20531;-59
2024/03/24 06:05:07;;;;;;;26.75;24.85;;;;;;;;;;4195238;28;20040;-59
2024/03/24 06:07:10;;;;;;;26.75;25.20;;;;;;;;;;4178973;28;20029;-60
2024/03/24 06:09:10;;;;;;;;;;;;;;;;;;4209258;28;20578;-59
2024/03/24 06:11:11;;;;;;;26.95;25.10;;;;;;;;;;4196332;28;19979;-59
2024/03/24 06:13:12;;;;;;;26.15;24.25;;;;;;;;;;4196406;28;20179;-58
2024/03/24 06:15:13;;;;;;;24.70;22.83;;;;;;;;;;4178785;28;20041;-59
2024/03/24 06:17:14;;;;;;;27.43;25.03;;;;;;;;;;4180690;28;20049;-58
2024/03/24 06:19:14;;;;;;;25.00;23.27;;;;;;;;;;4195809;28;20321;-58
2024/03/24 06:21:15;;;;;;;25.35;23.55;;;;;;;;;;4179776;28;20095;-59
2024/03/24 06:23:16;;;;;;;27.63;25.75;;;;;;;;;;4196047;28;20555;-58
2024/03/24 06:25:17;;;;;;;28.13;26.17;;;;;;;;;;4194927;28;20041;-60
2024/03/24 06:27:17;;;;;;;23.95;22.17;;;;;;;;;;4196492;28;20096;-60
2024/03/24 06:29:18;;;;;;;27.58;25.40;;;;;;;;;;4194394;28;20147;-59
2024/03/24 06:31:18;;;;;;;26.23;24.33;;;;;;;;;;4179367;28;20090;-60
2024/03/24 06:33:19;;;;;;;27.85;25.83;;;;;;;;;;4179562;28;20075;-59
2024/03/24 06:35:19;;;;;;;29.33;26.75;;;;;;;;;;4179553;28;20504;-60
2024/03/24 06:37:20;;;;;;;28.20;25.60;;;;;;;;;;4196350;28;20041;-59
2024/03/24 06:39:20;;;;;;;28.23;26.30;;;;;;;;;;4196417;28;20045;-59
2024/03/24 06:41:21;;;;;;;27.02;24.65;;;;;;;;;;4196105;28;20519;-59
2024/03/24 06:43:36;;;;;;;29.27;26.92;;;;;;;;;;4196218;28;20306;-60
2024/03/24 06:45:40;;;;;;;26.92;25.23;;;;;;;;;;4195863;28;20036;-58
2024/03/24 06:47:41;;;;;;;29.00;27.00;;;;;;;;;;4196510;28;20051;-60
2024/03/24 06:49:42;;;;;;;27.52;25.42;;;;;;;;;;4196100;28;20045;-60
2024/03/24 06:51:42;;;;;;;27.92;26.05;;;;;;;;;;4196212;28;20074;-60
2024/03/24 06:53:43;;;;;;;28.30;26.42;;;;;;;;;;4196041;28;20498;-60
2024/03/24 06:55:47;;;;;;;27.85;25.63;;;;;;;;;;4195933;28;20043;-59
2024/03/24 06:57:47;;;;;;;26.95;24.90;;;;;;;;;;4195073;28;20040;-60
2024/03/24 07:02:08;;;;;;;27.83;26.00;;;;;;;;;;4194945;28;20428;-59
2024/03/24 07:04:36;;;;;;;28.77;26.50;;;;;;;;;;4196723;28;20075;-58
2024/03/24 07:06:36;;;;;;;27.50;25.73;;;;;;;;;;4178646;28;20037;-58
2024/03/24 07:08:37;;;;;;;27.15;24.98;;;;;;;;;;4189337;28;20459;-60
2024/03/24 07:10:38;;;;;;;28.48;26.63;;;;;;;;;;4192436;28;20060;-58
2024/03/24 07:12:38;;;;;;;29.90;27.25;;;;;;;;;;4179059;28;20090;-59
2024/03/24 07:14:39;;;;;;;27.50;25.27;;;;;;;;;;4184613;28;20040;-57
2024/03/24 07:16:39;;;;;;;32.42;29.15;;;;;;;;;;4192607;28;20087;-59
2024/03/24 07:18:40;;;;;;;27.58;25.17;;;;;;;;;;4191121;28;20087;-59
2024/03/24 07:20:41;;;;;;;25.58;23.52;;;;;;;;;;4195455;28;20040;-60
2024/03/24 07:22:41;;;;;;;31.85;29.70;;;;;;;;;;4192309;28;20048;-63
2024/03/24 07:24:42;;;;;;;27.90;25.10;;;;;;;;;;4193887;28;20036;-63
2024/03/24 07:26:42;;;;;;;26.58;24.15;;;;;;;;;;4194217;28;20079;-63
2024/03/24 07:28:43;;;;;;;25.33;22.92;;;;;;;;;;4180810;28;20044;-63
2024/03/24 07:30:44;;;;;;;29.42;25.77;;;;;;;;;;4198031;28;20033;-63
2024/03/24 07:32:44;;;;;;;28.40;26.08;;;;;;;;;;4198745;28;20086;-63
2024/03/24 07:34:45;;;;;;;30.27;26.45;;;;;;;;;;4198680;28;20075;-63
2024/03/24 07:36:45;;;;;;;25.55;22.55;;;;;;;;;;4198874;28;20044;-64
2024/03/24 07:38:46;;;;;;;24.50;22.23;;;;;;;;;;4198773;28;20109;-63
2024/03/24 07:40:47;;;;;;;28.27;24.15;;;;;;;;;;4182132;28;20087;-63
2024/03/24 07:43:12;;;;;;;24.10;21.85;;;;;;;;;;4199994;28;20064;-63
2024/03/24 07:45:13;;;;;;;22.52;21.05;;;;;;;;;;4198884;28;20049;-64
2024/03/24 07:47:14;;;;;;;19.90;18.13;;;;;;;;;;4198838;28;20510;-63
2024/03/24 07:49:15;;;;;;;18.33;16.45;;;;;;;;;;4198807;28;20041;-63
2024/03/24 07:51:16;;;;;;;18.20;14.18;;;;;;;;;;4198953;28;20059;-63
2024/03/24 07:53:16;;;;;;;16.83;14.82;;;;;;;;;;4195658;28;20083;-64
2024/03/24 07:55:18;;;;;;;13.68;12.63;;;;;;;;;;4195704;28;20475;-64
2024/03/24 07:57:19;;;;;;;19.77;14.45;;;;;;;;;;4198349;28;20412;-63
2024/03/24 07:59:19;;;;;;;14.77;13.70;;;;;;;;;;4196953;28;20072;-62
2024/03/24 08:01:20;;;;;;;15.00;13.52;;;;;;;;;;4198163;28;20048;-63
2024/03/24 10:12:53;;;;;;;14.30;13.10;;;;;;;;;;4518885;23;20071;-84
2024/03/24 10:15:16;;;;;;;15.13;13.38;;;;;;;;;;4023402;29;21216;-84
2024/03/24 10:17:35;;;;;;;15.93;14.85;;;;;;;;;;4012902;29;20058;-85
2024/03/24 10:19:58;;;;;;;18.50;16.63;;;;;;;;;;4047427;29;20090;-85
2024/03/24 10:22:17;;;;;;;17.38;15.75;;;;;;;;;;4040394;29;20119;-84
2024/03/24 10:24:37;;;;;;;15.63;14.50;;;;;;;;;;4045276;29;20096;-84
2024/03/24 10:27:00;;;;;;;17.42;16.02;;;;;;;;;;4054340;29;20170;-84
2024/03/24 10:29:20;;;;;;;19.73;18.10;;;;;;;;;;4028428;29;20107;-84
2024/03/24 10:31:40;;;;;;;17.02;15.70;;;;;;;;;;4066392;29;20495;-83
2024/03/24 10:34:01;;;;;;;20.13;18.27;;;;;;;;;;4063709;29;20550;-85
2024/03/24 10:38:30;;;;;;;22.00;20.45;;;;;;;;;;4117767;23;20306;-61
2024/03/24 10:40:52;;;;;;;21.92;20.80;;;;;;;;;;4058300;29;20538;-60
2024/03/24 10:43:11;;;;;;;20.55;18.80;;;;;;;;;;4071914;29;20043;-61
2024/03/24 10:45:31;;;;;;;23.33;21.10;;;;;;;;;;4068438;29;20135;-61
2024/03/24 10:47:57;;;;;;;20.80;19.27;;;;;;;;;;4070993;29;20126;-61
2024/03/24 10:50:17;;;;;;;23.08;20.63;;;;;;;;;;4074682;29;20442;-60
2024/03/24 10:52:39;;;;;;;19.95;17.63;;;;;;;;;;4069389;29;20050;-61
2024/03/24 10:54:59;;;;;;;15.30;13.90;;;;;;;;;;4098585;28;20089;-61
2024/03/24 10:57:19;;;;;;;16.35;14.57;;;;;;;;;;4069904;29;20479;-61
2024/03/24 10:59:39;;;;;;;15.70;14.20;;;;;;;;;;4066893;29;20110;-61
2024/03/24 11:01:59;;;;;;;12.98;11.73;;;;;;;;;;4069805;29;20512;-61
2024/03/24 11:04:19;;;;;;;17.50;9.98;;;;;;;;;;4071566;29;20429;-61
2024/03/24 11:06:38;;;;;;;14.23;12.85;;;;;;;;;;4052466;29;20278;-60
2024/03/24 11:08:59;;;;;;;13.40;12.23;;;;;;;;;;4001515;29;21626;-61
2024/03/24 11:11:19;;;;;;;12.00;10.98;;;;;;;;;;4006547;29;20655;-61
2024/03/24 11:13:39;;;;;;;14.00;10.90;;;;;;;;;;4000090;29;20589;-61
2024/03/24 11:15:58;;;;;;;13.93;12.93;;;;;;;;;;4007850;29;20137;-61
2024/03/24 11:18:21;;;;;;;16.30;14.65;;;;;;;;;;4034661;28;20369;-61
2024/03/24 11:20:40;;;;;;;17.25;15.50;;;;;;;;;;4009875;29;20067;-60
2024/03/24 11:22:59;;;;;;;17.88;16.08;;;;;;;;;;4006705;29;20239;-60
2024/03/24 11:25:19;;;;;;;19.08;17.73;;;;;;;;;;4032508;28;20061;-61
2024/03/24 11:27:46;;;;;;;20.40;18.70;;;;;;;;;;4005831;29;20870;-61
2024/03/24 11:30:06;;;;;;;20.80;19.02;;;;;;;;;;4032119;28;21027;-60
2024/03/24 11:32:44;;;;;;;21.00;19.70;;;;;;;;;;4004647;29;22491;-61
2024/03/24 11:35:03;;;;;;;20.92;19.40;;;;;;;;;;4006068;29;20078;-61
2024/03/24 11:37:33;;;;;;;21.40;19.58;;;;;;;;;;4002664;29;20424;-61
2024/03/24 11:39:54;;;;;;;21.85;19.75;;;;;;;;;;4000415;29;20062;-61
2024/03/24 11:42:13;;;;;;;20.02;18.63;;;;;;;;;;4003223;29;20102;-61
2024/03/24 11:44:33;;;;;;;19.00;17.73;;;;;;;;;;3999101;29;22978;-61
2024/03/24 11:47:03;;;;;;;21.27;19.73;;;;;;;;;;3998836;29;20535;-60
2024/03/24 11:49:22;;;;;;;21.83;20.38;;;;;;;;;;4001717;29;20196;-60
2024/03/24 11:51:41;;;;;;;20.38;19.13;;;;;;;;;;4005615;29;20098;-61
2024/03/24 11:54:00;;;;;;;21.05;19.50;;;;;;;;;;4005980;29;20418;-61
2024/03/24 11:56:24;;;;;;;19.20;18.05;;;;;;;;;;4003380;29;20143;-60
2024/03/24 11:58:45;;;;;;;18.63;17.13;;;;;;;;;;4004212;29;20055;-61
2024/03/24 12:01:07;;;;;;;18.00;16.95;;;;;;;;;;4008677;29;20063;-61
2024/03/24 12:03:27;;;;;;;17.93;16.93;;;;;;;;;;4009879;29;20127;-60
2024/03/24 12:05:46;;;;;;;16.75;15.90;;;;;;;;;;4007097;29;20098;-61
2024/03/24 12:08:05;;;;;;;17.13;16.38;;;;;;;;;;4008109;29;20066;-60
2024/03/24 12:10:25;;;;;;;16.23;15.43;;;;;;;;;;4033809;28;20061;-60
2024/03/24 12:12:47;;;;;;;17.92;16.95;;;;;;;;;;4006662;29;20074;-60
2024/03/24 12:15:06;;;;;;;18.45;17.10;;;;;;;;;;4009390;29;20063;-60
2024/03/24 12:17:25;;;;;;;17.02;16.60;;;;;;;;;;4034711;28;20810;-61
2024/03/24 12:19:44;;;;;;;14.50;13.75;;;;;;;;;;4008800;29;20543;-60
2024/03/24 12:22:04;;;;;;;11.35;10.57;;;;;;;;;;4005285;29;20735;-61
2024/03/24 12:24:24;;;;;;;7.85;7.55;;;;;;;;;;3995203;29;20059;-60
2024/03/24 12:26:43;;;;;;;6.03;5.50;;;;;;;;;;4007906;29;20054;-60
2024/03/24 12:29:03;;;;;;;9.32;6.05;;;;;;;;;;4010543;29;20142;-60
2024/03/24 12:31:22;;;;;;;5.28;4.97;;;;;;;;;;4008771;29;20497;-61
2024/03/24 12:33:41;;;;;;;7.53;7.05;;;;;;;;;;4002997;29;22022;-61
2024/03/24 12:36:00;;;;;;;8.55;7.82;;;;;;;;;;4005213;29;22460;-61
2024/03/24 12:38:19;;;;;;;7.78;7.38;;;;;;;;;;4008757;29;20588;-61
2024/03/24 12:40:38;;;;;;;6.97;6.43;;;;;;;;;;4016740;28;20173;-61
2024/03/24 12:43:09;;;;;;;6.13;5.80;;;;;;;;;;4005339;29;20827;-61
2024/03/24 12:45:29;;;;;;;5.20;4.65;;;;;;;;;;4008410;29;21953;-61
2024/03/24 12:47:48;;;;;;;4.32;3.47;;;;;;;;;;4008227;29;20058;-61
2024/03/24 12:50:26;;;;;;;5.50;3.35;;;;;;;;;;4009119;29;20551;-61
2024/03/24 12:52:46;;;;;;;4.28;3.97;;;;;;;;;;4004311;29;20176;-61
2024/03/24 12:55:06;;;;;;;3.95;3.70;;;;;;;;;;4009087;29;20491;-61
2024/03/24 12:57:25;;;;;;;6.07;3.47;;;;;;;;;;4021886;28;20161;-61
2024/03/24 12:59:53;;;;;;;3.90;2.60;;;;;;;;;;4005992;29;20062;-61
2024/03/24 13:02:12;;;;;;;5.22;2.80;;;;;;;;;;4007438;29;20090;-61
2024/03/24 13:04:32;;;;;;;4.22;3.83;;;;;;;;;;4007801;29;20090;-61
2024/03/24 13:06:53;;;;;;;3.38;2.60;;;;;;;;;;4008609;29;20634;-60
2024/03/24 13:09:13;;;;;;;5.13;4.55;;;;;;;;;;3999557;29;20468;-60
2024/03/24 13:11:32;;;;;;;6.07;5.57;;;;;;;;;;3997040;28;20067;-60
2024/03/24 13:13:52;;;;;;;6.18;5.60;;;;;;;;;;4008400;29;20142;-60
2024/03/24 13:16:16;;;;;;;7.30;7.00;;;;;;;;;;4008377;29;20459;-60
2024/03/24 13:18:50;;;;;;;6.38;6.07;;;;;;;;;;4008428;29;20075;-60
2024/03/24 13:21:12;;;;;;;6.97;6.68;;;;;;;;;;4006418;29;20451;-60
2024/03/24 13:23:33;;;;;;;6.60;6.40;;;;;;;;;;4005552;29;20181;-60
2024/03/24 13:25:54;;;;;;;6.20;5.70;;;;;;;;;;4028886;28;20066;-60
2024/03/24 13:28:18;;;;;;;5.65;5.25;;;;;;;;;;4030638;28;20049;-60
2024/03/24 13:30:39;;;;;;;6.53;6.22;;;;;;;;;;4003704;29;20559;-60
2024/03/24 13:32:58;;;;;;;8.55;8.27;;;;;;;;;;4019191;28;20061;-60
2024/03/24 13:35:17;;;;;;;11.00;10.80;;;;;;;;;;4007528;29;20247;-60
2024/03/24 13:37:39;;;;;;;12.50;11.98;;;;;;;;;;4005244;29;20107;-60
2024/03/24 13:40:07;;;;;;;14.82;14.30;;;;;;;;;;4002780;29;20067;-60
2024/03/24 13:42:29;;;;;;;17.77;17.08;;;;;;;;;;4032036;28;21041;-61
2024/03/24 13:45:04;;;;;;;20.77;20.10;;;;;;;;;;4007694;29;20062;-62
2024/03/24 13:47:31;;;;;;;21.15;20.58;;;;;;;;;;3998174;29;20791;-62
2024/03/24 13:49:50;;;;;;;23.23;22.55;;;;;;;;;;4021134;28;20194;-62
2024/03/24 13:52:10;;;;;;;22.73;22.23;;;;;;;;;;4002081;29;20508;-62
2024/03/24 13:54:30;;;;;;;20.88;20.02;;;;;;;;;;3986539;29;20057;-62
2024/03/24 13:56:50;;;;;;;22.67;21.90;;;;;;;;;;3993291;29;20518;-62
2024/03/24 13:59:09;;;;;;;24.70;24.00;;;;;;;;;;3948978;29;20771;-62
2024/03/24 14:01:28;;;;;;;23.90;23.08;;;;;;;;;;3965865;29;22245;-62
2024/03/24 14:03:51;;;;;;;21.58;20.83;;;;;;;;;;3955125;29;20067;-62
2024/03/24 14:06:11;;;;;;;22.90;22.23;;;;;;;;;;3945785;29;20218;-62
2024/03/24 14:08:30;;;;;;;22.42;22.02;;;;;;;;;;3971341;29;22939;-62
2024/03/24 14:10:49;;;;;;;23.90;22.58;;;;;;;;;;3976165;29;20487;-62
2024/03/24 14:13:12;;;;;;;25.42;24.52;;;;;;;;;;3941136;29;20696;-62
2024/03/24 14:15:46;;;;;;;24.63;23.70;;;;;;;;;;3953532;29;20103;-62
2024/03/24 14:18:16;;;;;;;23.25;22.38;;;;;;;;;;3955563;29;20070;-62
2024/03/24 14:20:42;;;;;;;20.75;20.13;;;;;;;;;;3951409;29;22141;-62
2024/03/24 14:23:03;;;;;;;19.33;18.35;;;;;;;;;;3973273;28;20168;-62
2024/03/24 14:25:26;;;;;;;18.60;17.83;;;;;;;;;;3946576;29;20067;-62
2024/03/24 14:27:45;;;;;;;18.55;17.50;;;;;;;;;;3944176;29;20472;-62
2024/03/24 14:30:05;;;;;;;13.80;13.57;;;;;;;;;;3941697;29;20850;-62
2024/03/24 14:32:25;;;;;;;12.98;12.73;;;;;;;;;;3940059;29;20059;-62
2024/03/24 14:34:44;;;;;;;12.48;12.07;;;;;;;;;;3943761;29;21467;-62
2024/03/24 14:37:18;;;;;;;10.25;9.90;;;;;;;;;;3944680;29;20416;-62
2024/03/24 14:39:56;;;;;;;8.35;8.13;;;;;;;;;;3942506;29;20615;-62
2024/03/24 14:42:15;;;;;;;5.82;5.65;;;;;;;;;;3940873;29;20067;-62